Walkertown, Kentucky
Current Conditions -  °F | °C
As of 12:53 PM on Wednesday 26 Nov 2014 (Local Time) from KJKL Reporting Station
Scattered Clouds Scattered Clouds  
Wind Chill: 46°   Ceiling: Unl
Heat Index: 46°   Visibility: 10mi
Dew Point: 29°   Wind: 3mph
Humidity: 51%   Direction: NA
Pressure: 30.02"   Gusts: NA
Location:  37.2415°N, 83.2013°W
Report Text: KJKL 261753Z AUTO VRB03KT 10SM SCT049 08/M02 A3002 RMK AO2 SLP167 T00781017 10083 20006 58020
Loading
Personal Weather Stations






























Interactive Weather Map New forecast layout! Learn more

10-Day Weather Forecast

Advertisements
Track Severe Weather on mobile